sensor_id;sensor_type;location;lat;lon;timestamp;P1;durP1;ratioP1;P2;durP2;ratioP2
55368;SDS011;41247;49.736;8.752;2022-10-14T00:01:44;72.55;;;32.45;;
55368;SDS011;41247;49.736;8.752;2022-10-14T00:05:25;71.28;;;33.53;;
55368;SDS011;41247;49.736;8.752;2022-10-14T00:09:07;69.43;;;32.28;;
55368;SDS011;41247;49.736;8.752;2022-10-14T00:12:48;70.30;;;32.50;;
55368;SDS011;41247;49.736;8.752;2022-10-14T00:16:33;73.78;;;33.40;;
55368;SDS011;41247;49.736;8.752;2022-10-14T00:20:16;75.70;;;32.83;;
55368;SDS011;41247;49.736;8.752;2022-10-14T00:23:57;76.18;;;32.17;;
55368;SDS011;41247;49.736;8.752;2022-10-14T00:27:37;67.45;;;29.20;;
55368;SDS011;41247;49.736;8.752;2022-10-14T00:31:18;69.35;;;31.35;;
55368;SDS011;41247;49.736;8.752;2022-10-14T00:34:59;67.60;;;33.20;;
55368;SDS011;41247;49.736;8.752;2022-10-14T00:38:40;63.65;;;28.55;;
55368;SDS011;41247;49.736;8.752;2022-10-14T00:42:21;58.08;;;27.80;;
55368;SDS011;41247;49.736;8.752;2022-10-14T00:46:02;58.13;;;27.65;;
55368;SDS011;41247;49.736;8.752;2022-10-14T00:49:42;57.40;;;26.73;;
55368;SDS011;41247;49.736;8.752;2022-10-14T00:53:23;55.17;;;27.05;;
55368;SDS011;41247;49.736;8.752;2022-10-14T00:57:04;57.13;;;26.83;;
55368;SDS011;41247;49.736;8.752;2022-10-14T01:00:45;48.28;;;26.15;;
55368;SDS011;41247;49.736;8.752;2022-10-14T01:04:26;53.05;;;26.02;;
55368;SDS011;41247;49.736;8.752;2022-10-14T01:12:21;54.47;;;27.08;;
55368;SDS011;41247;49.736;8.752;2022-10-14T01:16:23;52.30;;;26.15;;
55368;SDS011;41247;49.736;8.752;2022-10-14T01:28:30;55.25;;;26.98;;
55368;SDS011;41247;49.736;8.752;2022-10-14T01:32:45;56.10;;;26.10;;
55368;SDS011;41247;49.736;8.752;2022-10-14T01:36:43;55.33;;;27.20;;
55368;SDS011;41247;49.736;8.752;2022-10-14T01:40:34;56.97;;;27.33;;
55368;SDS011;41247;49.736;8.752;2022-10-14T01:44:22;60.33;;;27.92;;
55368;SDS011;41247;49.736;8.752;2022-10-14T01:48:05;58.40;;;27.30;;
55368;SDS011;41247;49.736;8.752;2022-10-14T01:51:50;59.77;;;28.37;;
55368;SDS011;41247;49.736;8.752;2022-10-14T01:55:38;58.42;;;27.02;;
55368;SDS011;41247;49.736;8.752;2022-10-14T01:59:22;59.13;;;27.35;;
55368;SDS011;41247;49.736;8.752;2022-10-14T02:03:05;59.58;;;27.67;;
55368;SDS011;41247;49.736;8.752;2022-10-14T02:06:47;56.72;;;25.67;;
55368;SDS011;41247;49.736;8.752;2022-10-14T02:10:59;59.40;;;27.30;;
55368;SDS011;41247;49.736;8.752;2022-10-14T02:22:57;62.50;;;27.80;;
55368;SDS011;41247;49.736;8.752;2022-10-14T02:26:46;59.03;;;26.27;;
55368;SDS011;41247;49.736;8.752;2022-10-14T02:30:30;56.80;;;23.40;;
55368;SDS011;41247;49.736;8.752;2022-10-14T02:34:15;47.00;;;21.73;;
55368;SDS011;41247;49.736;8.752;2022-10-14T02:38:00;46.75;;;21.23;;
55368;SDS011;41247;49.736;8.752;2022-10-14T02:41:41;46.22;;;20.40;;
55368;SDS011;41247;49.736;8.752;2022-10-14T02:45:23;49.30;;;21.33;;
55368;SDS011;41247;49.736;8.752;2022-10-14T02:49:05;45.45;;;20.95;;
55368;SDS011;41247;49.736;8.752;2022-10-14T02:52:46;29.83;;;16.05;;
55368;SDS011;41247;49.736;8.752;2022-10-14T02:56:26;33.45;;;16.90;;
55368;SDS011;41247;49.736;8.752;2022-10-14T03:00:07;33.85;;;16.83;;
55368;SDS011;41247;49.736;8.752;2022-10-14T03:03:48;25.08;;;15.23;;
55368;SDS011;41247;49.736;8.752;2022-10-14T03:07:29;25.52;;;14.50;;
55368;SDS011;41247;49.736;8.752;2022-10-14T03:11:10;26.58;;;14.40;;
55368;SDS011;41247;49.736;8.752;2022-10-14T03:14:50;24.95;;;14.63;;
55368;SDS011;41247;49.736;8.752;2022-10-14T03:18:31;24.58;;;12.63;;
55368;SDS011;41247;49.736;8.752;2022-10-14T03:22:12;23.98;;;14.07;;
55368;SDS011;41247;49.736;8.752;2022-10-14T03:25:52;19.27;;;11.63;;
55368;SDS011;41247;49.736;8.752;2022-10-14T03:29:33;17.25;;;10.95;;
55368;SDS011;41247;49.736;8.752;2022-10-14T03:33:22;23.75;;;11.75;;
55368;SDS011;41247;49.736;8.752;2022-10-14T03:37:03;20.35;;;12.93;;
55368;SDS011;41247;49.736;8.752;2022-10-14T03:40:44;26.88;;;15.38;;
55368;SDS011;41247;49.736;8.752;2022-10-14T03:44:24;33.10;;;18.52;;
55368;SDS011;41247;49.736;8.752;2022-10-14T03:48:05;42.30;;;20.70;;
55368;SDS011;41247;49.736;8.752;2022-10-14T03:51:45;47.35;;;22.23;;
55368;SDS011;41247;49.736;8.752;2022-10-14T04:00:13;43.00;;;21.77;;
55368;SDS011;41247;49.736;8.752;2022-10-14T04:04:26;38.20;;;20.88;;
55368;SDS011;41247;49.736;8.752;2022-10-14T04:08:07;45.10;;;20.00;;
55368;SDS011;41247;49.736;8.752;2022-10-14T04:17:41;31.63;;;16.45;;
55368;SDS011;41247;49.736;8.752;2022-10-14T04:21:22;29.58;;;15.48;;
55368;SDS011;41247;49.736;8.752;2022-10-14T04:25:02;26.80;;;15.23;;
55368;SDS011;41247;49.736;8.752;2022-10-14T04:28:56;30.35;;;15.75;;
55368;SDS011;41247;49.736;8.752;2022-10-14T04:32:36;33.78;;;16.83;;
55368;SDS011;41247;49.736;8.752;2022-10-14T04:36:26;29.73;;;15.98;;
55368;SDS011;41247;49.736;8.752;2022-10-14T04:41:20;37.30;;;16.42;;
55368;SDS011;41247;49.736;8.752;2022-10-14T04:50:25;40.92;;;20.45;;
55368;SDS011;41247;49.736;8.752;2022-10-14T04:55:02;53.03;;;24.77;;
55368;SDS011;41247;49.736;8.752;2022-10-14T04:59:40;46.58;;;25.08;;
55368;SDS011;41247;49.736;8.752;2022-10-14T05:04:16;45.97;;;22.65;;
55368;SDS011;41247;49.736;8.752;2022-10-14T05:12:46;52.88;;;25.55;;
55368;SDS011;41247;49.736;8.752;2022-10-14T05:16:27;56.90;;;26.27;;
55368;SDS011;41247;49.736;8.752;2022-10-14T05:20:10;56.75;;;28.50;;
55368;SDS011;41247;49.736;8.752;2022-10-14T05:24:48;70.97;;;29.98;;
55368;SDS011;41247;49.736;8.752;2022-10-14T05:33:15;63.47;;;28.30;;
55368;SDS011;41247;49.736;8.752;2022-10-14T05:36:59;59.40;;;30.30;;
55368;SDS011;41247;49.736;8.752;2022-10-14T05:40:54;63.25;;;31.10;;
55368;SDS011;41247;49.736;8.752;2022-10-14T05:49:00;73.78;;;35.15;;
55368;SDS011;41247;49.736;8.752;2022-10-14T05:52:44;73.05;;;36.78;;
55368;SDS011;41247;49.736;8.752;2022-10-14T05:56:43;70.97;;;38.03;;
55368;SDS011;41247;49.736;8.752;2022-10-14T06:00:33;80.97;;;39.67;;
55368;SDS011;41247;49.736;8.752;2022-10-14T06:04:19;80.13;;;40.78;;
55368;SDS011;41247;49.736;8.752;2022-10-14T06:08:53;74.82;;;39.60;;
55368;SDS011;41247;49.736;8.752;2022-10-14T06:22:16;72.40;;;35.38;;
55368;SDS011;41247;49.736;8.752;2022-10-14T06:34:58;56.90;;;29.52;;
55368;SDS011;41247;49.736;8.752;2022-10-14T06:38:51;64.47;;;29.67;;
55368;SDS011;41247;49.736;8.752;2022-10-14T06:42:34;55.03;;;28.45;;
55368;SDS011;41247;49.736;8.752;2022-10-14T06:46:18;53.72;;;27.70;;
55368;SDS011;41247;49.736;8.752;2022-10-14T06:49:58;49.40;;;26.40;;
55368;SDS011;41247;49.736;8.752;2022-10-14T06:53:39;50.80;;;26.30;;
55368;SDS011;41247;49.736;8.752;2022-10-14T06:57:27;51.10;;;24.73;;
55368;SDS011;41247;49.736;8.752;2022-10-14T07:01:21;52.67;;;25.65;;
55368;SDS011;41247;49.736;8.752;2022-10-14T07:05:02;50.95;;;25.08;;
55368;SDS011;41247;49.736;8.752;2022-10-14T07:08:43;54.55;;;27.02;;
55368;SDS011;41247;49.736;8.752;2022-10-14T07:12:24;49.22;;;25.05;;
55368;SDS011;41247;49.736;8.752;2022-10-14T07:16:05;46.70;;;25.00;;
55368;SDS011;41247;49.736;8.752;2022-10-14T07:19:46;51.40;;;24.73;;
55368;SDS011;41247;49.736;8.752;2022-10-14T07:23:26;51.30;;;25.73;;
55368;SDS011;41247;49.736;8.752;2022-10-14T07:27:07;51.47;;;26.02;;
55368;SDS011;41247;49.736;8.752;2022-10-14T07:30:56;46.17;;;22.95;;
55368;SDS011;41247;49.736;8.752;2022-10-14T07:34:41;34.63;;;20.63;;
55368;SDS011;41247;49.736;8.752;2022-10-14T07:38:23;35.83;;;20.35;;
55368;SDS011;41247;49.736;8.752;2022-10-14T07:42:04;33.92;;;20.05;;
55368;SDS011;41247;49.736;8.752;2022-10-14T07:45:44;34.45;;;19.65;;
55368;SDS011;41247;49.736;8.752;2022-10-14T07:49:25;33.75;;;20.77;;
55368;SDS011;41247;49.736;8.752;2022-10-14T07:53:05;33.90;;;19.75;;
55368;SDS011;41247;49.736;8.752;2022-10-14T07:56:46;36.67;;;19.77;;
55368;SDS011;41247;49.736;8.752;2022-10-14T08:00:28;37.67;;;19.20;;
55368;SDS011;41247;49.736;8.752;2022-10-14T08:04:11;35.72;;;19.30;;
55368;SDS011;41247;49.736;8.752;2022-10-14T08:07:52;37.20;;;19.77;;
55368;SDS011;41247;49.736;8.752;2022-10-14T08:11:33;31.65;;;18.02;;
55368;SDS011;41247;49.736;8.752;2022-10-14T08:15:14;33.13;;;17.70;;
55368;SDS011;41247;49.736;8.752;2022-10-14T08:18:55;31.80;;;17.83;;
55368;SDS011;41247;49.736;8.752;2022-10-14T08:22:38;28.70;;;16.97;;
55368;SDS011;41247;49.736;8.752;2022-10-14T08:30:08;26.90;;;16.40;;
55368;SDS011;41247;49.736;8.752;2022-10-14T08:33:50;27.40;;;16.15;;
55368;SDS011;41247;49.736;8.752;2022-10-14T08:37:30;27.40;;;15.75;;
55368;SDS011;41247;49.736;8.752;2022-10-14T08:45:02;32.08;;;14.98;;
55368;SDS011;41247;49.736;8.752;2022-10-14T08:48:50;26.88;;;15.25;;
55368;SDS011;41247;49.736;8.752;2022-10-14T08:52:46;27.95;;;14.27;;
55368;SDS011;41247;49.736;8.752;2022-10-14T08:56:34;27.05;;;14.80;;
55368;SDS011;41247;49.736;8.752;2022-10-14T09:00:15;24.15;;;14.20;;
55368;SDS011;41247;49.736;8.752;2022-10-14T09:04:03;28.00;;;15.07;;
55368;SDS011;41247;49.736;8.752;2022-10-14T09:07:46;21.80;;;12.93;;
55368;SDS011;41247;49.736;8.752;2022-10-14T09:11:30;24.40;;;13.40;;
55368;SDS011;41247;49.736;8.752;2022-10-14T09:15:20;23.88;;;13.55;;
55368;SDS011;41247;49.736;8.752;2022-10-14T09:19:13;23.77;;;12.90;;
55368;SDS011;41247;49.736;8.752;2022-10-14T09:23:21;19.65;;;13.05;;
55368;SDS011;41247;49.736;8.752;2022-10-14T09:27:05;20.95;;;12.05;;
55368;SDS011;41247;49.736;8.752;2022-10-14T09:30:52;23.35;;;11.73;;
55368;SDS011;41247;49.736;8.752;2022-10-14T09:34:34;20.65;;;11.02;;
55368;SDS011;41247;49.736;8.752;2022-10-14T09:38:18;21.77;;;10.32;;
55368;SDS011;41247;49.736;8.752;2022-10-14T09:41:59;16.38;;;10.20;;
55368;SDS011;41247;49.736;8.752;2022-10-14T09:45:51;13.68;;;9.73;;
55368;SDS011;41247;49.736;8.752;2022-10-14T09:49:46;18.90;;;9.68;;
55368;SDS011;41247;49.736;8.752;2022-10-14T09:53:28;17.48;;;9.00;;
55368;SDS011;41247;49.736;8.752;2022-10-14T09:57:16;17.85;;;8.75;;
55368;SDS011;41247;49.736;8.752;2022-10-14T10:00:58;14.20;;;8.48;;
55368;SDS011;41247;49.736;8.752;2022-10-14T10:04:41;14.85;;;8.20;;
55368;SDS011;41247;49.736;8.752;2022-10-14T10:08:23;13.73;;;7.93;;
55368;SDS011;41247;49.736;8.752;2022-10-14T10:12:23;16.05;;;7.82;;
55368;SDS011;41247;49.736;8.752;2022-10-14T10:16:27;16.48;;;8.27;;
55368;SDS011;41247;49.736;8.752;2022-10-14T10:20:21;14.85;;;7.50;;
55368;SDS011;41247;49.736;8.752;2022-10-14T10:27:58;12.98;;;7.43;;
55368;SDS011;41247;49.736;8.752;2022-10-14T10:35:50;10.68;;;6.70;;
55368;SDS011;41247;49.736;8.752;2022-10-14T10:52:40;12.38;;;6.53;;
55368;SDS011;41247;49.736;8.752;2022-10-14T10:56:45;14.90;;;7.25;;
55368;SDS011;41247;49.736;8.752;2022-10-14T11:00:30;11.45;;;6.97;;
55368;SDS011;41247;49.736;8.752;2022-10-14T11:04:47;14.65;;;7.07;;
55368;SDS011;41247;49.736;8.752;2022-10-14T11:13:20;14.25;;;7.05;;
55368;SDS011;41247;49.736;8.752;2022-10-14T11:42:03;13.90;;;6.20;;
55368;SDS011;41247;49.736;8.752;2022-10-14T11:45:53;8.55;;;5.80;;
55368;SDS011;41247;49.736;8.752;2022-10-14T11:49:51;9.13;;;5.57;;
55368;SDS011;41247;49.736;8.752;2022-10-14T11:57:49;10.10;;;5.82;;
55368;SDS011;41247;49.736;8.752;2022-10-14T12:01:38;10.45;;;5.10;;
55368;SDS011;41247;49.736;8.752;2022-10-14T12:05:28;8.90;;;5.40;;
55368;SDS011;41247;49.736;8.752;2022-10-14T12:09:29;11.40;;;6.03;;
55368;SDS011;41247;49.736;8.752;2022-10-14T12:13:19;9.68;;;5.22;;
55368;SDS011;41247;49.736;8.752;2022-10-14T12:17:19;10.55;;;5.50;;
55368;SDS011;41247;49.736;8.752;2022-10-14T12:21:34;8.65;;;4.65;;
55368;SDS011;41247;49.736;8.752;2022-10-14T12:25:26;9.32;;;4.60;;
55368;SDS011;41247;49.736;8.752;2022-10-14T12:29:15;8.65;;;4.43;;
55368;SDS011;41247;49.736;8.752;2022-10-14T12:33:02;8.32;;;4.22;;
55368;SDS011;41247;49.736;8.752;2022-10-14T12:36:51;10.80;;;4.47;;
55368;SDS011;41247;49.736;8.752;2022-10-14T12:40:31;5.22;;;3.88;;
55368;SDS011;41247;49.736;8.752;2022-10-14T12:44:13;5.47;;;4.18;;
55368;SDS011;41247;49.736;8.752;2022-10-14T12:48:03;4.85;;;3.65;;
55368;SDS011;41247;49.736;8.752;2022-10-14T12:52:17;4.97;;;4.20;;
55368;SDS011;41247;49.736;8.752;2022-10-14T12:56:11;7.78;;;4.78;;
55368;SDS011;41247;49.736;8.752;2022-10-14T13:04:01;13.68;;;8.30;;
55368;SDS011;41247;49.736;8.752;2022-10-14T13:07:46;11.70;;;8.07;;
55368;SDS011;41247;49.736;8.752;2022-10-14T13:15:48;15.00;;;10.02;;
55368;SDS011;41247;49.736;8.752;2022-10-14T13:23:15;14.50;;;9.75;;
55368;SDS011;41247;49.736;8.752;2022-10-14T13:31:36;17.67;;;11.30;;
55368;SDS011;41247;49.736;8.752;2022-10-14T13:39:30;16.33;;;10.80;;
55368;SDS011;41247;49.736;8.752;2022-10-14T13:47:00;18.75;;;11.27;;
55368;SDS011;41247;49.736;8.752;2022-10-14T13:50:42;16.77;;;11.57;;
55368;SDS011;41247;49.736;8.752;2022-10-14T13:54:27;22.55;;;12.63;;
55368;SDS011;41247;49.736;8.752;2022-10-14T13:58:10;21.77;;;14.02;;
55368;SDS011;41247;49.736;8.752;2022-10-14T14:01:59;23.95;;;13.55;;
55368;SDS011;41247;49.736;8.752;2022-10-14T14:05:41;22.70;;;12.90;;
55368;SDS011;41247;49.736;8.752;2022-10-14T14:09:23;21.58;;;12.68;;
55368;SDS011;41247;49.736;8.752;2022-10-14T14:13:09;19.83;;;11.85;;
55368;SDS011;41247;49.736;8.752;2022-10-14T14:16:56;18.10;;;13.02;;
55368;SDS011;41247;49.736;8.752;2022-10-14T14:20:38;21.45;;;13.05;;
55368;SDS011;41247;49.736;8.752;2022-10-14T14:24:24;18.38;;;12.35;;
55368;SDS011;41247;49.736;8.752;2022-10-14T14:28:05;23.05;;;11.90;;
55368;SDS011;41247;49.736;8.752;2022-10-14T14:31:52;20.90;;;11.70;;
55368;SDS011;41247;49.736;8.752;2022-10-14T14:35:32;18.90;;;11.85;;
55368;SDS011;41247;49.736;8.752;2022-10-14T14:43:08;16.17;;;11.82;;
55368;SDS011;41247;49.736;8.752;2022-10-14T14:46:49;17.13;;;11.55;;
55368;SDS011;41247;49.736;8.752;2022-10-14T14:50:32;15.13;;;10.63;;
55368;SDS011;41247;49.736;8.752;2022-10-14T14:58:19;13.27;;;10.13;;
55368;SDS011;41247;49.736;8.752;2022-10-14T15:02:31;16.90;;;9.18;;
55368;SDS011;41247;49.736;8.752;2022-10-14T15:06:14;12.18;;;9.50;;
55368;SDS011;41247;49.736;8.752;2022-10-14T15:09:58;13.57;;;8.15;;
55368;SDS011;41247;49.736;8.752;2022-10-14T15:13:44;13.20;;;8.73;;
55368;SDS011;41247;49.736;8.752;2022-10-14T15:17:34;12.23;;;8.73;;
55368;SDS011;41247;49.736;8.752;2022-10-14T15:21:22;16.23;;;8.75;;
55368;SDS011;41247;49.736;8.752;2022-10-14T15:25:07;17.23;;;10.93;;
55368;SDS011;41247;49.736;8.752;2022-10-14T15:29:03;12.68;;;8.60;;
55368;SDS011;41247;49.736;8.752;2022-10-14T15:32:56;13.98;;;9.82;;
55368;SDS011;41247;49.736;8.752;2022-10-14T15:36:40;11.93;;;8.93;;
55368;SDS011;41247;49.736;8.752;2022-10-14T15:40:22;14.75;;;9.43;;
55368;SDS011;41247;49.736;8.752;2022-10-14T15:44:08;15.02;;;9.60;;
55368;SDS011;41247;49.736;8.752;2022-10-14T15:47:56;17.85;;;9.73;;
55368;SDS011;41247;49.736;8.752;2022-10-14T15:51:40;14.27;;;9.30;;
55368;SDS011;41247;49.736;8.752;2022-10-14T15:55:22;15.48;;;9.73;;
55368;SDS011;41247;49.736;8.752;2022-10-14T15:59:05;11.68;;;9.02;;
55368;SDS011;41247;49.736;8.752;2022-10-14T16:02:46;13.82;;;8.85;;
55368;SDS011;41247;49.736;8.752;2022-10-14T16:06:31;13.82;;;10.38;;
55368;SDS011;41247;49.736;8.752;2022-10-14T16:10:13;14.02;;;9.70;;
55368;SDS011;41247;49.736;8.752;2022-10-14T16:13:56;12.13;;;9.15;;
55368;SDS011;41247;49.736;8.752;2022-10-14T16:17:37;16.77;;;9.68;;
55368;SDS011;41247;49.736;8.752;2022-10-14T16:21:18;14.32;;;9.82;;
55368;SDS011;41247;49.736;8.752;2022-10-14T16:24:58;11.85;;;9.32;;
55368;SDS011;41247;49.736;8.752;2022-10-14T16:28:39;11.70;;;9.25;;
55368;SDS011;41247;49.736;8.752;2022-10-14T16:32:19;12.32;;;9.13;;
55368;SDS011;41247;49.736;8.752;2022-10-14T16:36:00;12.55;;;9.55;;
55368;SDS011;41247;49.736;8.752;2022-10-14T16:39:41;11.32;;;10.13;;
55368;SDS011;41247;49.736;8.752;2022-10-14T16:43:21;15.90;;;10.57;;
55368;SDS011;41247;49.736;8.752;2022-10-14T16:47:02;14.25;;;12.35;;
55368;SDS011;41247;49.736;8.752;2022-10-14T16:50:43;13.95;;;11.63;;
55368;SDS011;41247;49.736;8.752;2022-10-14T16:54:28;14.85;;;11.50;;
55368;SDS011;41247;49.736;8.752;2022-10-14T16:58:09;13.57;;;10.57;;
55368;SDS011;41247;49.736;8.752;2022-10-14T17:01:50;12.45;;;10.40;;
55368;SDS011;41247;49.736;8.752;2022-10-14T17:05:30;11.32;;;9.57;;
55368;SDS011;41247;49.736;8.752;2022-10-14T17:09:11;13.93;;;10.60;;
55368;SDS011;41247;49.736;8.752;2022-10-14T17:12:53;13.98;;;11.15;;
55368;SDS011;41247;49.736;8.752;2022-10-14T17:16:34;14.40;;;10.85;;
55368;SDS011;41247;49.736;8.752;2022-10-14T17:20:15;14.55;;;10.60;;
55368;SDS011;41247;49.736;8.752;2022-10-14T17:23:59;12.43;;;10.27;;
55368;SDS011;41247;49.736;8.752;2022-10-14T17:27:40;10.25;;;8.65;;
55368;SDS011;41247;49.736;8.752;2022-10-14T17:31:21;7.75;;;6.82;;
55368;SDS011;41247;49.736;8.752;2022-10-14T17:35:03;6.63;;;5.63;;
55368;SDS011;41247;49.736;8.752;2022-10-14T17:42:30;10.52;;;6.28;;
55368;SDS011;41247;49.736;8.752;2022-10-14T17:46:11;8.57;;;4.50;;
55368;SDS011;41247;49.736;8.752;2022-10-14T17:49:52;4.35;;;3.42;;
55368;SDS011;41247;49.736;8.752;2022-10-14T17:53:32;4.38;;;3.22;;
55368;SDS011;41247;49.736;8.752;2022-10-14T17:57:13;3.53;;;2.75;;
55368;SDS011;41247;49.736;8.752;2022-10-14T18:00:53;6.68;;;2.97;;
55368;SDS011;41247;49.736;8.752;2022-10-14T18:04:41;3.20;;;2.60;;
55368;SDS011;41247;49.736;8.752;2022-10-14T18:08:22;3.80;;;2.50;;
55368;SDS011;41247;49.736;8.752;2022-10-14T18:12:03;3.92;;;2.88;;
55368;SDS011;41247;49.736;8.752;2022-10-14T18:15:44;5.88;;;3.10;;
55368;SDS011;41247;49.736;8.752;2022-10-14T18:19:24;5.80;;;2.95;;
55368;SDS011;41247;49.736;8.752;2022-10-14T18:23:05;4.63;;;3.72;;
55368;SDS011;41247;49.736;8.752;2022-10-14T18:26:48;9.18;;;4.68;;
55368;SDS011;41247;49.736;8.752;2022-10-14T18:30:29;7.03;;;5.05;;
55368;SDS011;41247;49.736;8.752;2022-10-14T18:34:10;8.55;;;4.97;;
55368;SDS011;41247;49.736;8.752;2022-10-14T18:37:51;9.30;;;5.65;;
55368;SDS011;41247;49.736;8.752;2022-10-14T18:41:31;7.75;;;4.90;;
55368;SDS011;41247;49.736;8.752;2022-10-14T18:45:12;7.53;;;5.28;;
55368;SDS011;41247;49.736;8.752;2022-10-14T18:48:56;7.25;;;5.40;;
55368;SDS011;41247;49.736;8.752;2022-10-14T18:52:38;6.35;;;5.40;;
55368;SDS011;41247;49.736;8.752;2022-10-14T18:56:20;7.55;;;6.75;;
55368;SDS011;41247;49.736;8.752;2022-10-14T19:00:03;8.88;;;7.97;;
55368;SDS011;41247;49.736;8.752;2022-10-14T19:03:44;9.07;;;8.13;;
55368;SDS011;41247;49.736;8.752;2022-10-14T19:07:25;8.25;;;6.75;;
55368;SDS011;41247;49.736;8.752;2022-10-14T19:11:09;9.88;;;7.63;;
55368;SDS011;41247;49.736;8.752;2022-10-14T19:14:56;6.90;;;4.97;;
55368;SDS011;41247;49.736;8.752;2022-10-14T19:18:37;4.35;;;3.10;;
55368;SDS011;41247;49.736;8.752;2022-10-14T19:22:17;5.68;;;3.20;;
55368;SDS011;41247;49.736;8.752;2022-10-14T19:25:58;3.63;;;2.88;;
55368;SDS011;41247;49.736;8.752;2022-10-14T19:29:39;3.60;;;2.40;;
55368;SDS011;41247;49.736;8.752;2022-10-14T19:33:19;6.28;;;2.40;;
55368;SDS011;41247;49.736;8.752;2022-10-14T19:37:00;6.00;;;1.77;;
55368;SDS011;41247;49.736;8.752;2022-10-14T19:40:40;2.35;;;1.70;;
55368;SDS011;41247;49.736;8.752;2022-10-14T19:44:21;2.85;;;2.30;;
55368;SDS011;41247;49.736;8.752;2022-10-14T19:48:01;3.35;;;2.20;;
55368;SDS011;41247;49.736;8.752;2022-10-14T19:51:42;3.50;;;2.50;;
55368;SDS011;41247;49.736;8.752;2022-10-14T19:55:23;4.03;;;3.33;;
55368;SDS011;41247;49.736;8.752;2022-10-14T19:59:04;6.00;;;3.40;;
55368;SDS011;41247;49.736;8.752;2022-10-14T20:02:44;3.88;;;3.40;;
55368;SDS011;41247;49.736;8.752;2022-10-14T20:06:25;3.00;;;2.65;;
55368;SDS011;41247;49.736;8.752;2022-10-14T20:10:06;2.97;;;2.45;;
55368;SDS011;41247;49.736;8.752;2022-10-14T20:13:47;5.13;;;2.97;;
55368;SDS011;41247;49.736;8.752;2022-10-14T20:17:27;5.68;;;2.92;;
55368;SDS011;41247;49.736;8.752;2022-10-14T20:21:09;4.25;;;2.80;;
55368;SDS011;41247;49.736;8.752;2022-10-14T20:24:53;2.67;;;2.10;;
55368;SDS011;41247;49.736;8.752;2022-10-14T20:28:39;1.98;;;1.70;;
55368;SDS011;41247;49.736;8.752;2022-10-14T20:32:20;2.95;;;1.70;;
55368;SDS011;41247;49.736;8.752;2022-10-14T20:36:04;2.60;;;1.80;;
55368;SDS011;41247;49.736;8.752;2022-10-14T20:39:50;3.58;;;2.10;;
55368;SDS011;41247;49.736;8.752;2022-10-14T20:43:31;2.88;;;1.83;;
55368;SDS011;41247;49.736;8.752;2022-10-14T20:47:12;2.13;;;1.60;;
55368;SDS011;41247;49.736;8.752;2022-10-14T20:50:53;5.75;;;1.90;;
55368;SDS011;41247;49.736;8.752;2022-10-14T20:54:34;1.75;;;1.65;;
55368;SDS011;41247;49.736;8.752;2022-10-14T20:58:15;4.10;;;1.55;;
55368;SDS011;41247;49.736;8.752;2022-10-14T21:01:56;3.28;;;1.20;;
55368;SDS011;41247;49.736;8.752;2022-10-14T21:05:36;2.05;;;1.35;;
55368;SDS011;41247;49.736;8.752;2022-10-14T21:09:17;2.20;;;1.42;;
55368;SDS011;41247;49.736;8.752;2022-10-14T21:12:58;3.92;;;1.23;;
55368;SDS011;41247;49.736;8.752;2022-10-14T21:16:38;1.38;;;1.20;;
55368;SDS011;41247;49.736;8.752;2022-10-14T21:20:19;2.55;;;1.20;;
55368;SDS011;41247;49.736;8.752;2022-10-14T21:24:00;1.52;;;1.05;;
55368;SDS011;41247;49.736;8.752;2022-10-14T21:27:40;2.85;;;1.20;;
55368;SDS011;41247;49.736;8.752;2022-10-14T21:31:21;1.13;;;1.00;;
55368;SDS011;41247;49.736;8.752;2022-10-14T21:35:02;1.15;;;0.90;;
55368;SDS011;41247;49.736;8.752;2022-10-14T21:38:43;2.42;;;0.90;;
55368;SDS011;41247;49.736;8.752;2022-10-14T21:42:23;2.60;;;0.77;;
55368;SDS011;41247;49.736;8.752;2022-10-14T21:46:06;1.58;;;1.10;;
55368;SDS011;41247;49.736;8.752;2022-10-14T21:49:53;3.90;;;0.80;;
55368;SDS011;41247;49.736;8.752;2022-10-14T21:53:33;2.20;;;0.80;;
55368;SDS011;41247;49.736;8.752;2022-10-14T21:57:14;8.60;;;0.80;;
55368;SDS011;41247;49.736;8.752;2022-10-14T22:00:59;3.40;;;0.70;;
55368;SDS011;41247;49.736;8.752;2022-10-14T22:04:52;1.02;;;0.80;;
55368;SDS011;41247;49.736;8.752;2022-10-14T22:08:34;3.20;;;1.00;;
55368;SDS011;41247;49.736;8.752;2022-10-14T22:12:20;0.68;;;0.68;;
55368;SDS011;41247;49.736;8.752;2022-10-14T22:16:00;0.80;;;0.70;;
55368;SDS011;41247;49.736;8.752;2022-10-14T22:19:41;0.70;;;0.70;;
55368;SDS011;41247;49.736;8.752;2022-10-14T22:23:21;3.65;;;1.02;;
55368;SDS011;41247;49.736;8.752;2022-10-14T22:27:02;2.10;;;0.80;;
55368;SDS011;41247;49.736;8.752;2022-10-14T22:30:42;0.63;;;0.63;;
55368;SDS011;41247;49.736;8.752;2022-10-14T22:34:23;2.53;;;0.80;;
55368;SDS011;41247;49.736;8.752;2022-10-14T22:38:04;0.80;;;0.80;;
55368;SDS011;41247;49.736;8.752;2022-10-14T22:41:44;2.05;;;0.80;;
55368;SDS011;41247;49.736;8.752;2022-10-14T22:45:25;1.00;;;0.90;;
55368;SDS011;41247;49.736;8.752;2022-10-14T22:49:06;1.98;;;1.20;;
55368;SDS011;41247;49.736;8.752;2022-10-14T22:52:46;1.45;;;1.00;;
55368;SDS011;41247;49.736;8.752;2022-10-14T22:56:28;1.00;;;0.90;;
55368;SDS011;41247;49.736;8.752;2022-10-14T23:00:09;1.38;;;1.27;;
55368;SDS011;41247;49.736;8.752;2022-10-14T23:03:51;1.50;;;1.40;;
55368;SDS011;41247;49.736;8.752;2022-10-14T23:07:32;2.17;;;1.40;;
55368;SDS011;41247;49.736;8.752;2022-10-14T23:11:14;1.50;;;1.30;;
55368;SDS011;41247;49.736;8.752;2022-10-14T23:14:57;1.27;;;1.17;;
55368;SDS011;41247;49.736;8.752;2022-10-14T23:18:39;2.13;;;1.20;;
55368;SDS011;41247;49.736;8.752;2022-10-14T23:22:20;1.25;;;1.15;;
55368;SDS011;41247;49.736;8.752;2022-10-14T23:26:00;0.93;;;0.82;;
55368;SDS011;41247;49.736;8.752;2022-10-14T23:29:41;1.10;;;1.00;;
55368;SDS011;41247;49.736;8.752;2022-10-14T23:33:22;0.90;;;0.90;;
55368;SDS011;41247;49.736;8.752;2022-10-14T23:37:02;2.50;;;1.08;;
55368;SDS011;41247;49.736;8.752;2022-10-14T23:40:43;0.90;;;0.90;;
55368;SDS011;41247;49.736;8.752;2022-10-14T23:44:23;1.15;;;1.05;;
55368;SDS011;41247;49.736;8.752;2022-10-14T23:48:04;0.80;;;0.80;;
55368;SDS011;41247;49.736;8.752;2022-10-14T23:51:45;1.10;;;0.98;;
55368;SDS011;41247;49.736;8.752;2022-10-14T23:55:26;2.75;;;1.10;;
55368;SDS011;41247;49.736;8.752;2022-10-14T23:59:06;1.55;;;1.08;;
